sensor_id;sensor_type;location;lat;lon;timestamp;P1;durP1;ratioP1;P2;durP2;ratioP2
12788;SDS011;6458;42.710;23.192;2023-05-29T00:01:27;5.40;;;4.87;;
12788;SDS011;6458;42.710;23.192;2023-05-29T00:03:54;6.33;;;5.10;;
12788;SDS011;6458;42.710;23.192;2023-05-29T00:06:20;5.90;;;5.33;;
12788;SDS011;6458;42.710;23.192;2023-05-29T00:08:47;5.10;;;4.50;;
12788;SDS011;6458;42.710;23.192;2023-05-29T00:11:13;5.27;;;4.87;;
12788;SDS011;6458;42.710;23.192;2023-05-29T00:13:40;5.30;;;4.83;;
12788;SDS011;6458;42.710;23.192;2023-05-29T00:16:08;8.43;;;5.20;;
12788;SDS011;6458;42.710;23.192;2023-05-29T00:18:35;7.53;;;5.43;;
12788;SDS011;6458;42.710;23.192;2023-05-29T00:21:10;5.70;;;5.20;;
12788;SDS011;6458;42.710;23.192;2023-05-29T00:23:37;7.20;;;5.20;;
12788;SDS011;6458;42.710;23.192;2023-05-29T00:26:04;5.90;;;5.40;;
12788;SDS011;6458;42.710;23.192;2023-05-29T00:28:30;5.30;;;4.90;;
12788;SDS011;6458;42.710;23.192;2023-05-29T00:30:57;5.17;;;4.77;;
12788;SDS011;6458;42.710;23.192;2023-05-29T00:33:25;6.10;;;5.50;;
12788;SDS011;6458;42.710;23.192;2023-05-29T00:35:52;9.20;;;5.30;;
12788;SDS011;6458;42.710;23.192;2023-05-29T00:38:19;5.70;;;5.20;;
12788;SDS011;6458;42.710;23.192;2023-05-29T00:40:45;6.90;;;4.80;;
12788;SDS011;6458;42.710;23.192;2023-05-29T00:43:12;5.83;;;4.43;;
12788;SDS011;6458;42.710;23.192;2023-05-29T00:45:39;5.83;;;5.33;;
12788;SDS011;6458;42.710;23.192;2023-05-29T00:48:05;5.27;;;4.77;;
12788;SDS011;6458;42.710;23.192;2023-05-29T00:50:34;5.37;;;5.00;;
12788;SDS011;6458;42.710;23.192;2023-05-29T00:53:01;5.63;;;4.90;;
12788;SDS011;6458;42.710;23.192;2023-05-29T00:55:29;5.40;;;5.00;;
12788;SDS011;6458;42.710;23.192;2023-05-29T00:57:56;5.30;;;4.77;;
12788;SDS011;6458;42.710;23.192;2023-05-29T01:00:23;7.17;;;5.57;;
12788;SDS011;6458;42.710;23.192;2023-05-29T01:02:50;7.20;;;4.70;;
12788;SDS011;6458;42.710;23.192;2023-05-29T01:05:17;5.90;;;5.40;;
12788;SDS011;6458;42.710;23.192;2023-05-29T01:07:46;5.77;;;5.37;;
12788;SDS011;6458;42.710;23.192;2023-05-29T01:10:14;6.03;;;5.07;;
12788;SDS011;6458;42.710;23.192;2023-05-29T01:12:43;5.60;;;4.67;;
12788;SDS011;6458;42.710;23.192;2023-05-29T01:15:15;6.93;;;5.50;;
12788;SDS011;6458;42.710;23.192;2023-05-29T01:17:47;6.20;;;5.50;;
12788;SDS011;6458;42.710;23.192;2023-05-29T01:20:21;6.10;;;4.90;;
12788;SDS011;6458;42.710;23.192;2023-05-29T01:25:50;5.03;;;4.53;;
12788;SDS011;6458;42.710;23.192;2023-05-29T01:28:20;6.20;;;4.83;;
12788;SDS011;6458;42.710;23.192;2023-05-29T01:30:48;4.93;;;4.63;;
12788;SDS011;6458;42.710;23.192;2023-05-29T01:33:15;7.17;;;6.13;;
12788;SDS011;6458;42.710;23.192;2023-05-29T01:35:42;5.53;;;5.03;;
12788;SDS011;6458;42.710;23.192;2023-05-29T01:38:09;6.37;;;4.63;;
12788;SDS011;6458;42.710;23.192;2023-05-29T01:40:35;5.37;;;4.87;;
12788;SDS011;6458;42.710;23.192;2023-05-29T01:43:02;5.77;;;5.37;;
12788;SDS011;6458;42.710;23.192;2023-05-29T01:45:31;6.83;;;5.33;;
12788;SDS011;6458;42.710;23.192;2023-05-29T01:47:58;6.40;;;5.80;;
12788;SDS011;6458;42.710;23.192;2023-05-29T01:50:25;6.23;;;5.73;;
12788;SDS011;6458;42.710;23.192;2023-05-29T01:52:52;5.60;;;5.10;;
12788;SDS011;6458;42.710;23.192;2023-05-29T01:55:19;6.53;;;5.73;;
12788;SDS011;6458;42.710;23.192;2023-05-29T01:57:46;6.57;;;6.07;;
12788;SDS011;6458;42.710;23.192;2023-05-29T02:00:13;8.97;;;6.33;;
12788;SDS011;6458;42.710;23.192;2023-05-29T02:02:44;6.60;;;5.73;;
12788;SDS011;6458;42.710;23.192;2023-05-29T02:05:10;6.60;;;5.93;;
12788;SDS011;6458;42.710;23.192;2023-05-29T02:07:37;6.60;;;6.00;;
12788;SDS011;6458;42.710;23.192;2023-05-29T02:10:04;6.23;;;5.73;;
12788;SDS011;6458;42.710;23.192;2023-05-29T02:12:31;7.73;;;5.43;;
12788;SDS011;6458;42.710;23.192;2023-05-29T02:14:58;5.73;;;5.30;;
12788;SDS011;6458;42.710;23.192;2023-05-29T02:17:25;6.10;;;5.50;;
12788;SDS011;6458;42.710;23.192;2023-05-29T02:19:53;5.90;;;5.40;;
12788;SDS011;6458;42.710;23.192;2023-05-29T02:22:19;5.70;;;5.20;;
12788;SDS011;6458;42.710;23.192;2023-05-29T02:24:46;6.20;;;5.60;;
12788;SDS011;6458;42.710;23.192;2023-05-29T02:27:13;6.63;;;5.97;;
12788;SDS011;6458;42.710;23.192;2023-05-29T02:29:39;6.07;;;5.57;;
12788;SDS011;6458;42.710;23.192;2023-05-29T02:32:06;6.43;;;5.80;;
12788;SDS011;6458;42.710;23.192;2023-05-29T02:34:33;6.60;;;5.93;;
12788;SDS011;6458;42.710;23.192;2023-05-29T02:37:07;7.27;;;6.43;;
12788;SDS011;6458;42.710;23.192;2023-05-29T02:39:33;6.83;;;6.17;;
12788;SDS011;6458;42.710;23.192;2023-05-29T02:42:00;6.43;;;5.83;;
12788;SDS011;6458;42.710;23.192;2023-05-29T02:44:31;11.63;;;6.80;;
12788;SDS011;6458;42.710;23.192;2023-05-29T02:46:57;11.20;;;6.90;;
12788;SDS011;6458;42.710;23.192;2023-05-29T02:49:24;6.80;;;6.20;;
12788;SDS011;6458;42.710;23.192;2023-05-29T02:51:51;10.67;;;6.77;;
12788;SDS011;6458;42.710;23.192;2023-05-29T02:54:23;7.00;;;6.40;;
12788;SDS011;6458;42.710;23.192;2023-05-29T02:56:50;6.53;;;5.73;;
12788;SDS011;6458;42.710;23.192;2023-05-29T02:59:17;7.73;;;6.50;;
12788;SDS011;6458;42.710;23.192;2023-05-29T03:01:44;7.80;;;7.10;;
12788;SDS011;6458;42.710;23.192;2023-05-29T03:04:10;7.70;;;6.33;;
12788;SDS011;6458;42.710;23.192;2023-05-29T03:06:37;7.27;;;6.57;;
12788;SDS011;6458;42.710;23.192;2023-05-29T03:09:04;6.80;;;6.17;;
12788;SDS011;6458;42.710;23.192;2023-05-29T03:11:33;9.40;;;6.57;;
12788;SDS011;6458;42.710;23.192;2023-05-29T03:14:00;8.83;;;6.83;;
12788;SDS011;6458;42.710;23.192;2023-05-29T03:16:27;6.63;;;6.03;;
12788;SDS011;6458;42.710;23.192;2023-05-29T03:18:54;7.60;;;6.83;;
12788;SDS011;6458;42.710;23.192;2023-05-29T03:21:21;7.83;;;6.13;;
12788;SDS011;6458;42.710;23.192;2023-05-29T03:23:48;7.67;;;6.77;;
12788;SDS011;6458;42.710;23.192;2023-05-29T03:26:15;7.70;;;7.00;;
12788;SDS011;6458;42.710;23.192;2023-05-29T03:28:43;7.50;;;6.57;;
12788;SDS011;6458;42.710;23.192;2023-05-29T03:31:10;7.80;;;6.83;;
12788;SDS011;6458;42.710;23.192;2023-05-29T03:33:37;7.50;;;6.80;;
12788;SDS011;6458;42.710;23.192;2023-05-29T03:36:03;9.10;;;7.47;;
12788;SDS011;6458;42.710;23.192;2023-05-29T03:38:30;7.63;;;6.93;;
12788;SDS011;6458;42.710;23.192;2023-05-29T03:40:57;6.90;;;6.30;;
12788;SDS011;6458;42.710;23.192;2023-05-29T03:43:23;7.63;;;6.83;;
12788;SDS011;6458;42.710;23.192;2023-05-29T03:45:51;8.00;;;7.13;;
12788;SDS011;6458;42.710;23.192;2023-05-29T03:48:18;8.03;;;6.50;;
12788;SDS011;6458;42.710;23.192;2023-05-29T03:50:45;8.27;;;7.50;;
12788;SDS011;6458;42.710;23.192;2023-05-29T03:53:12;7.37;;;6.67;;
12788;SDS011;6458;42.710;23.192;2023-05-29T03:55:39;8.87;;;6.87;;
12788;SDS011;6458;42.710;23.192;2023-05-29T03:58:06;8.37;;;7.13;;
12788;SDS011;6458;42.710;23.192;2023-05-29T04:00:32;7.70;;;6.93;;
12788;SDS011;6458;42.710;23.192;2023-05-29T04:03:00;7.20;;;6.60;;
12788;SDS011;6458;42.710;23.192;2023-05-29T04:05:27;7.10;;;6.50;;
12788;SDS011;6458;42.710;23.192;2023-05-29T04:07:53;8.37;;;7.30;;
12788;SDS011;6458;42.710;23.192;2023-05-29T04:10:20;7.40;;;6.63;;
12788;SDS011;6458;42.710;23.192;2023-05-29T04:15:40;6.70;;;6.10;;
12788;SDS011;6458;42.710;23.192;2023-05-29T04:18:08;6.10;;;5.60;;
12788;SDS011;6458;42.710;23.192;2023-05-29T04:20:35;6.10;;;5.50;;
12788;SDS011;6458;42.710;23.192;2023-05-29T04:23:01;7.10;;;5.73;;
12788;SDS011;6458;42.710;23.192;2023-05-29T04:25:28;6.27;;;5.67;;
12788;SDS011;6458;42.710;23.192;2023-05-29T04:27:55;5.70;;;5.20;;
12788;SDS011;6458;42.710;23.192;2023-05-29T04:30:22;5.83;;;5.33;;
12788;SDS011;6458;42.710;23.192;2023-05-29T04:32:49;6.07;;;5.50;;
12788;SDS011;6458;42.710;23.192;2023-05-29T04:35:18;5.70;;;5.20;;
12788;SDS011;6458;42.710;23.192;2023-05-29T04:37:46;8.20;;;5.47;;
12788;SDS011;6458;42.710;23.192;2023-05-29T04:40:13;5.60;;;5.20;;
12788;SDS011;6458;42.710;23.192;2023-05-29T04:42:42;6.00;;;5.50;;
12788;SDS011;6458;42.710;23.192;2023-05-29T04:45:10;6.37;;;5.47;;
12788;SDS011;6458;42.710;23.192;2023-05-29T04:47:37;6.47;;;5.13;;
12788;SDS011;6458;42.710;23.192;2023-05-29T04:50:09;5.80;;;5.40;;
12788;SDS011;6458;42.710;23.192;2023-05-29T04:52:37;5.60;;;5.10;;
12788;SDS011;6458;42.710;23.192;2023-05-29T04:55:04;5.63;;;5.13;;
12788;SDS011;6458;42.710;23.192;2023-05-29T04:57:31;5.90;;;5.13;;
12788;SDS011;6458;42.710;23.192;2023-05-29T04:59:58;5.87;;;5.00;;
12788;SDS011;6458;42.710;23.192;2023-05-29T05:02:24;6.33;;;5.30;;
12788;SDS011;6458;42.710;23.192;2023-05-29T05:04:51;7.67;;;5.37;;
12788;SDS011;6458;42.710;23.192;2023-05-29T05:07:18;6.67;;;6.07;;
12788;SDS011;6458;42.710;23.192;2023-05-29T05:09:46;7.63;;;6.47;;
12788;SDS011;6458;42.710;23.192;2023-05-29T05:12:13;6.93;;;6.23;;
12788;SDS011;6458;42.710;23.192;2023-05-29T05:14:40;7.20;;;6.43;;
12788;SDS011;6458;42.710;23.192;2023-05-29T05:17:06;6.73;;;6.23;;
12788;SDS011;6458;42.710;23.192;2023-05-29T05:19:33;6.23;;;5.63;;
12788;SDS011;6458;42.710;23.192;2023-05-29T05:22:00;7.07;;;6.30;;
12788;SDS011;6458;42.710;23.192;2023-05-29T05:24:26;8.27;;;6.40;;
12788;SDS011;6458;42.710;23.192;2023-05-29T05:26:55;6.33;;;5.73;;
12788;SDS011;6458;42.710;23.192;2023-05-29T05:29:21;6.23;;;5.63;;
12788;SDS011;6458;42.710;23.192;2023-05-29T05:31:48;6.20;;;5.60;;
12788;SDS011;6458;42.710;23.192;2023-05-29T05:34:15;6.97;;;6.37;;
12788;SDS011;6458;42.710;23.192;2023-05-29T05:36:41;7.47;;;6.37;;
12788;SDS011;6458;42.710;23.192;2023-05-29T05:39:08;6.90;;;6.20;;
12788;SDS011;6458;42.710;23.192;2023-05-29T05:41:35;7.20;;;6.53;;
12788;SDS011;6458;42.710;23.192;2023-05-29T05:44:03;6.67;;;6.07;;
12788;SDS011;6458;42.710;23.192;2023-05-29T05:46:29;7.17;;;6.47;;
12788;SDS011;6458;42.710;23.192;2023-05-29T05:48:56;6.03;;;5.43;;
12788;SDS011;6458;42.710;23.192;2023-05-29T05:51:23;6.07;;;5.57;;
12788;SDS011;6458;42.710;23.192;2023-05-29T05:53:49;7.50;;;5.53;;
12788;SDS011;6458;42.710;23.192;2023-05-29T05:56:22;6.87;;;5.30;;
12788;SDS011;6458;42.710;23.192;2023-05-29T05:58:49;5.73;;;4.97;;
12788;SDS011;6458;42.710;23.192;2023-05-29T06:01:17;6.67;;;5.00;;
12788;SDS011;6458;42.710;23.192;2023-05-29T06:03:45;7.07;;;4.90;;
12788;SDS011;6458;42.710;23.192;2023-05-29T06:06:12;4.83;;;4.53;;
12788;SDS011;6458;42.710;23.192;2023-05-29T06:08:38;4.80;;;4.47;;
12788;SDS011;6458;42.710;23.192;2023-05-29T06:11:06;5.33;;;4.50;;
12788;SDS011;6458;42.710;23.192;2023-05-29T06:13:33;4.57;;;4.17;;
12788;SDS011;6458;42.710;23.192;2023-05-29T06:16:00;5.07;;;4.50;;
12788;SDS011;6458;42.710;23.192;2023-05-29T06:18:28;5.07;;;4.57;;
12788;SDS011;6458;42.710;23.192;2023-05-29T06:20:55;5.37;;;4.43;;
12788;SDS011;6458;42.710;23.192;2023-05-29T06:23:22;5.00;;;4.60;;
12788;SDS011;6458;42.710;23.192;2023-05-29T06:25:48;5.83;;;4.03;;
12788;SDS011;6458;42.710;23.192;2023-05-29T06:28:15;6.70;;;4.17;;
12788;SDS011;6458;42.710;23.192;2023-05-29T06:30:42;4.40;;;4.13;;
12788;SDS011;6458;42.710;23.192;2023-05-29T06:33:11;5.07;;;4.67;;
12788;SDS011;6458;42.710;23.192;2023-05-29T06:35:39;4.40;;;3.90;;
12788;SDS011;6458;42.710;23.192;2023-05-29T06:38:06;4.50;;;4.13;;
12788;SDS011;6458;42.710;23.192;2023-05-29T06:40:33;4.00;;;3.70;;
12788;SDS011;6458;42.710;23.192;2023-05-29T06:43:00;4.30;;;4.00;;
12788;SDS011;6458;42.710;23.192;2023-05-29T06:45:26;4.67;;;4.33;;
12788;SDS011;6458;42.710;23.192;2023-05-29T06:47:53;4.57;;;4.20;;
12788;SDS011;6458;42.710;23.192;2023-05-29T06:50:20;4.67;;;4.30;;
12788;SDS011;6458;42.710;23.192;2023-05-29T06:52:48;5.00;;;4.00;;
12788;SDS011;6458;42.710;23.192;2023-05-29T06:55:15;3.87;;;3.57;;
12788;SDS011;6458;42.710;23.192;2023-05-29T06:57:42;3.87;;;3.60;;
12788;SDS011;6458;42.710;23.192;2023-05-29T07:00:09;4.33;;;3.93;;
12788;SDS011;6458;42.710;23.192;2023-05-29T07:02:36;3.90;;;3.70;;
12788;SDS011;6458;42.710;23.192;2023-05-29T07:05:03;3.73;;;3.53;;
12788;SDS011;6458;42.710;23.192;2023-05-29T07:07:30;3.90;;;3.60;;
12788;SDS011;6458;42.710;23.192;2023-05-29T07:09:58;3.67;;;3.47;;
12788;SDS011;6458;42.710;23.192;2023-05-29T07:12:25;4.17;;;3.77;;
12788;SDS011;6458;42.710;23.192;2023-05-29T07:14:51;3.27;;;2.97;;
12788;SDS011;6458;42.710;23.192;2023-05-29T07:17:18;2.50;;;2.40;;
12788;SDS011;6458;42.710;23.192;2023-05-29T07:19:45;2.33;;;2.23;;
12788;SDS011;6458;42.710;23.192;2023-05-29T07:22:11;2.57;;;2.37;;
12788;SDS011;6458;42.710;23.192;2023-05-29T07:24:38;1.50;;;1.50;;
12788;SDS011;6458;42.710;23.192;2023-05-29T07:27:07;1.93;;;1.83;;
12788;SDS011;6458;42.710;23.192;2023-05-29T07:29:34;1.80;;;1.70;;
12788;SDS011;6458;42.710;23.192;2023-05-29T07:32:01;2.10;;;2.00;;
12788;SDS011;6458;42.710;23.192;2023-05-29T07:34:27;2.03;;;1.73;;
12788;SDS011;6458;42.710;23.192;2023-05-29T07:36:57;2.57;;;2.47;;
12788;SDS011;6458;42.710;23.192;2023-05-29T07:39:25;2.27;;;2.17;;
12788;SDS011;6458;42.710;23.192;2023-05-29T07:41:51;2.17;;;2.07;;
12788;SDS011;6458;42.710;23.192;2023-05-29T07:44:19;2.10;;;2.00;;
12788;SDS011;6458;42.710;23.192;2023-05-29T07:46:46;2.70;;;2.20;;
12788;SDS011;6458;42.710;23.192;2023-05-29T07:49:13;2.10;;;2.10;;
12788;SDS011;6458;42.710;23.192;2023-05-29T07:51:40;2.43;;;2.23;;
12788;SDS011;6458;42.710;23.192;2023-05-29T07:54:06;1.93;;;1.93;;
12788;SDS011;6458;42.710;23.192;2023-05-29T07:56:33;2.40;;;2.20;;
12788;SDS011;6458;42.710;23.192;2023-05-29T07:59:00;1.80;;;1.80;;
12788;SDS011;6458;42.710;23.192;2023-05-29T08:01:28;2.57;;;2.40;;
12788;SDS011;6458;42.710;23.192;2023-05-29T08:03:54;2.20;;;2.00;;
12788;SDS011;6458;42.710;23.192;2023-05-29T08:06:21;2.20;;;2.00;;
12788;SDS011;6458;42.710;23.192;2023-05-29T08:08:48;2.30;;;2.20;;
12788;SDS011;6458;42.710;23.192;2023-05-29T08:11:14;2.37;;;2.27;;
12788;SDS011;6458;42.710;23.192;2023-05-29T08:13:41;2.37;;;2.17;;
12788;SDS011;6458;42.710;23.192;2023-05-29T08:16:07;2.13;;;2.13;;
12788;SDS011;6458;42.710;23.192;2023-05-29T08:18:35;1.93;;;1.90;;
12788;SDS011;6458;42.710;23.192;2023-05-29T08:21:03;1.90;;;1.90;;
12788;SDS011;6458;42.710;23.192;2023-05-29T08:23:30;4.20;;;2.57;;
12788;SDS011;6458;42.710;23.192;2023-05-29T08:25:57;2.37;;;2.27;;
12788;SDS011;6458;42.710;23.192;2023-05-29T08:28:23;2.33;;;2.23;;
12788;SDS011;6458;42.710;23.192;2023-05-29T08:30:51;2.50;;;2.40;;
12788;SDS011;6458;42.710;23.192;2023-05-29T08:33:18;2.63;;;2.53;;
12788;SDS011;6458;42.710;23.192;2023-05-29T08:35:46;3.47;;;3.20;;
12788;SDS011;6458;42.710;23.192;2023-05-29T08:38:13;3.20;;;3.10;;
12788;SDS011;6458;42.710;23.192;2023-05-29T08:40:40;3.10;;;2.90;;
12788;SDS011;6458;42.710;23.192;2023-05-29T08:43:08;2.70;;;2.60;;
12788;SDS011;6458;42.710;23.192;2023-05-29T08:45:37;3.10;;;3.00;;
12788;SDS011;6458;42.710;23.192;2023-05-29T08:48:05;2.90;;;2.80;;
12788;SDS011;6458;42.710;23.192;2023-05-29T08:50:33;3.07;;;2.97;;
12788;SDS011;6458;42.710;23.192;2023-05-29T08:53:02;4.23;;;3.03;;
12788;SDS011;6458;42.710;23.192;2023-05-29T08:55:29;2.90;;;2.80;;
12788;SDS011;6458;42.710;23.192;2023-05-29T08:57:56;4.20;;;3.13;;
12788;SDS011;6458;42.710;23.192;2023-05-29T09:00:22;3.03;;;2.83;;
12788;SDS011;6458;42.710;23.192;2023-05-29T09:02:53;3.50;;;3.30;;
12788;SDS011;6458;42.710;23.192;2023-05-29T09:05:20;3.30;;;3.00;;
12788;SDS011;6458;42.710;23.192;2023-05-29T09:07:47;3.33;;;3.13;;
12788;SDS011;6458;42.710;23.192;2023-05-29T09:10:18;3.90;;;3.60;;
12788;SDS011;6458;42.710;23.192;2023-05-29T09:12:46;3.97;;;3.67;;
12788;SDS011;6458;42.710;23.192;2023-05-29T09:15:18;3.77;;;3.03;;
12788;SDS011;6458;42.710;23.192;2023-05-29T09:17:49;3.77;;;3.50;;
12788;SDS011;6458;42.710;23.192;2023-05-29T09:20:17;3.50;;;3.03;;
12788;SDS011;6458;42.710;23.192;2023-05-29T09:22:46;2.87;;;2.77;;
12788;SDS011;6458;42.710;23.192;2023-05-29T09:25:20;3.60;;;3.30;;
12788;SDS011;6458;42.710;23.192;2023-05-29T09:27:50;3.33;;;3.10;;
12788;SDS011;6458;42.710;23.192;2023-05-29T09:30:30;3.03;;;2.87;;
12788;SDS011;6458;42.710;23.192;2023-05-29T09:32:58;3.17;;;2.97;;
12788;SDS011;6458;42.710;23.192;2023-05-29T09:35:25;3.27;;;3.07;;
12788;SDS011;6458;42.710;23.192;2023-05-29T09:37:52;5.10;;;3.47;;
12788;SDS011;6458;42.710;23.192;2023-05-29T09:40:20;5.73;;;3.83;;
12788;SDS011;6458;42.710;23.192;2023-05-29T09:42:46;3.40;;;3.20;;
12788;SDS011;6458;42.710;23.192;2023-05-29T09:45:13;4.43;;;3.70;;
12788;SDS011;6458;42.710;23.192;2023-05-29T09:47:43;3.77;;;3.47;;
12788;SDS011;6458;42.710;23.192;2023-05-29T09:50:14;3.40;;;3.20;;
12788;SDS011;6458;42.710;23.192;2023-05-29T09:52:44;5.33;;;3.87;;
12788;SDS011;6458;42.710;23.192;2023-05-29T09:55:10;3.87;;;3.57;;
12788;SDS011;6458;42.710;23.192;2023-05-29T09:57:39;3.30;;;3.10;;
12788;SDS011;6458;42.710;23.192;2023-05-29T10:00:07;9.40;;;4.03;;
12788;SDS011;6458;42.710;23.192;2023-05-29T10:02:38;3.53;;;3.33;;
12788;SDS011;6458;42.710;23.192;2023-05-29T10:05:05;3.70;;;3.40;;
12788;SDS011;6458;42.710;23.192;2023-05-29T10:07:32;3.93;;;3.50;;
12788;SDS011;6458;42.710;23.192;2023-05-29T10:10:02;3.80;;;3.60;;
12788;SDS011;6458;42.710;23.192;2023-05-29T10:12:30;4.13;;;3.80;;
12788;SDS011;6458;42.710;23.192;2023-05-29T10:14:59;4.20;;;3.97;;
12788;SDS011;6458;42.710;23.192;2023-05-29T10:17:28;3.40;;;3.30;;
12788;SDS011;6458;42.710;23.192;2023-05-29T10:19:57;3.97;;;3.53;;
12788;SDS011;6458;42.710;23.192;2023-05-29T10:22:24;4.00;;;3.60;;
12788;SDS011;6458;42.710;23.192;2023-05-29T10:24:51;4.90;;;3.83;;
12788;SDS011;6458;42.710;23.192;2023-05-29T10:27:18;4.13;;;3.80;;
12788;SDS011;6458;42.710;23.192;2023-05-29T10:29:47;4.50;;;4.13;;
12788;SDS011;6458;42.710;23.192;2023-05-29T10:32:20;4.13;;;3.80;;
12788;SDS011;6458;42.710;23.192;2023-05-29T10:34:48;4.07;;;3.80;;
12788;SDS011;6458;42.710;23.192;2023-05-29T10:37:21;3.43;;;3.27;;
12788;SDS011;6458;42.710;23.192;2023-05-29T10:39:50;3.80;;;3.60;;
12788;SDS011;6458;42.710;23.192;2023-05-29T10:45:02;3.77;;;3.50;;
12788;SDS011;6458;42.710;23.192;2023-05-29T10:47:30;4.73;;;4.30;;
12788;SDS011;6458;42.710;23.192;2023-05-29T10:49:59;3.50;;;3.30;;
12788;SDS011;6458;42.710;23.192;2023-05-29T10:52:25;3.70;;;3.50;;
12788;SDS011;6458;42.710;23.192;2023-05-29T10:54:53;3.83;;;3.60;;
12788;SDS011;6458;42.710;23.192;2023-05-29T10:57:21;3.70;;;3.50;;
12788;SDS011;6458;42.710;23.192;2023-05-29T10:59:58;4.33;;;4.03;;
12788;SDS011;6458;42.710;23.192;2023-05-29T11:02:25;3.60;;;3.20;;
12788;SDS011;6458;42.710;23.192;2023-05-29T11:07:50;4.03;;;3.87;;
12788;SDS011;6458;42.710;23.192;2023-05-29T11:10:17;4.20;;;3.80;;
12788;SDS011;6458;42.710;23.192;2023-05-29T11:13:04;4.00;;;3.70;;
12788;SDS011;6458;42.710;23.192;2023-05-29T11:15:32;3.60;;;3.33;;
12788;SDS011;6458;42.710;23.192;2023-05-29T11:18:05;4.17;;;3.87;;
12788;SDS011;6458;42.710;23.192;2023-05-29T11:20:42;3.80;;;3.60;;
12788;SDS011;6458;42.710;23.192;2023-05-29T11:23:15;3.57;;;3.37;;
12788;SDS011;6458;42.710;23.192;2023-05-29T11:25:43;4.03;;;3.73;;
12788;SDS011;6458;42.710;23.192;2023-05-29T11:28:10;3.00;;;2.90;;
12788;SDS011;6458;42.710;23.192;2023-05-29T11:30:44;3.80;;;3.60;;
12788;SDS011;6458;42.710;23.192;2023-05-29T11:33:13;3.33;;;3.03;;
12788;SDS011;6458;42.710;23.192;2023-05-29T11:35:42;6.30;;;3.80;;
12788;SDS011;6458;42.710;23.192;2023-05-29T11:38:09;3.53;;;3.27;;
12788;SDS011;6458;42.710;23.192;2023-05-29T11:40:37;3.57;;;3.37;;
12788;SDS011;6458;42.710;23.192;2023-05-29T11:43:04;3.53;;;3.33;;
12788;SDS011;6458;42.710;23.192;2023-05-29T11:45:32;3.60;;;3.40;;
12788;SDS011;6458;42.710;23.192;2023-05-29T11:47:59;3.27;;;3.07;;
12788;SDS011;6458;42.710;23.192;2023-05-29T11:50:26;3.87;;;3.43;;
12788;SDS011;6458;42.710;23.192;2023-05-29T11:52:53;3.43;;;3.13;;
12788;SDS011;6458;42.710;23.192;2023-05-29T11:55:20;3.60;;;3.30;;
12788;SDS011;6458;42.710;23.192;2023-05-29T11:57:49;3.63;;;3.43;;
12788;SDS011;6458;42.710;23.192;2023-05-29T12:00:17;3.67;;;3.47;;
12788;SDS011;6458;42.710;23.192;2023-05-29T12:02:44;3.63;;;3.33;;
12788;SDS011;6458;42.710;23.192;2023-05-29T12:05:12;4.23;;;3.53;;
12788;SDS011;6458;42.710;23.192;2023-05-29T12:07:46;3.80;;;3.60;;
12788;SDS011;6458;42.710;23.192;2023-05-29T12:10:13;4.20;;;3.80;;
12788;SDS011;6458;42.710;23.192;2023-05-29T12:12:40;5.40;;;4.03;;
12788;SDS011;6458;42.710;23.192;2023-05-29T12:15:09;4.00;;;3.53;;
12788;SDS011;6458;42.710;23.192;2023-05-29T12:17:36;10.43;;;5.33;;
12788;SDS011;6458;42.710;23.192;2023-05-29T12:20:02;6.77;;;4.43;;
12788;SDS011;6458;42.710;23.192;2023-05-29T12:22:32;3.70;;;3.50;;
12788;SDS011;6458;42.710;23.192;2023-05-29T12:25:03;5.60;;;4.00;;
12788;SDS011;6458;42.710;23.192;2023-05-29T12:27:30;7.43;;;3.97;;
12788;SDS011;6458;42.710;23.192;2023-05-29T12:29:59;3.30;;;3.00;;
12788;SDS011;6458;42.710;23.192;2023-05-29T12:32:35;3.87;;;3.57;;
12788;SDS011;6458;42.710;23.192;2023-05-29T12:35:09;4.20;;;3.93;;
12788;SDS011;6458;42.710;23.192;2023-05-29T12:37:35;4.90;;;4.40;;
12788;SDS011;6458;42.710;23.192;2023-05-29T12:40:08;4.70;;;4.40;;
12788;SDS011;6458;42.710;23.192;2023-05-29T12:42:37;5.00;;;4.60;;
12788;SDS011;6458;42.710;23.192;2023-05-29T12:45:04;5.10;;;4.70;;
12788;SDS011;6458;42.710;23.192;2023-05-29T12:47:32;5.33;;;4.83;;
12788;SDS011;6458;42.710;23.192;2023-05-29T12:50:00;5.40;;;4.80;;
12788;SDS011;6458;42.710;23.192;2023-05-29T12:52:30;4.93;;;4.50;;
12788;SDS011;6458;42.710;23.192;2023-05-29T12:54:57;5.40;;;4.93;;
12788;SDS011;6458;42.710;23.192;2023-05-29T12:57:23;5.07;;;4.53;;
12788;SDS011;6458;42.710;23.192;2023-05-29T12:59:50;4.73;;;4.43;;
12788;SDS011;6458;42.710;23.192;2023-05-29T13:02:17;5.20;;;4.70;;
12788;SDS011;6458;42.710;23.192;2023-05-29T13:04:43;5.47;;;4.97;;
12788;SDS011;6458;42.710;23.192;2023-05-29T13:07:11;4.90;;;4.50;;
12788;SDS011;6458;42.710;23.192;2023-05-29T13:09:38;6.33;;;4.03;;
12788;SDS011;6458;42.710;23.192;2023-05-29T13:12:05;3.57;;;3.27;;
12788;SDS011;6458;42.710;23.192;2023-05-29T13:14:32;3.30;;;3.10;;
12788;SDS011;6458;42.710;23.192;2023-05-29T13:16:58;3.47;;;3.17;;
12788;SDS011;6458;42.710;23.192;2023-05-29T13:19:25;3.50;;;3.20;;
12788;SDS011;6458;42.710;23.192;2023-05-29T13:21:52;3.67;;;3.43;;
12788;SDS011;6458;42.710;23.192;2023-05-29T13:24:20;4.27;;;3.87;;
12788;SDS011;6458;42.710;23.192;2023-05-29T13:26:46;4.87;;;3.43;;
12788;SDS011;6458;42.710;23.192;2023-05-29T13:29:15;3.40;;;3.10;;
12788;SDS011;6458;42.710;23.192;2023-05-29T13:31:42;4.37;;;3.73;;
12788;SDS011;6458;42.710;23.192;2023-05-29T13:34:08;3.77;;;3.60;;
12788;SDS011;6458;42.710;23.192;2023-05-29T13:36:35;3.73;;;3.53;;
12788;SDS011;6458;42.710;23.192;2023-05-29T13:39:02;5.90;;;3.93;;
12788;SDS011;6458;42.710;23.192;2023-05-29T13:41:31;4.27;;;3.97;;
12788;SDS011;6458;42.710;23.192;2023-05-29T13:43:58;3.67;;;3.43;;
12788;SDS011;6458;42.710;23.192;2023-05-29T13:46:25;4.07;;;3.77;;
12788;SDS011;6458;42.710;23.192;2023-05-29T13:48:52;3.60;;;3.40;;
12788;SDS011;6458;42.710;23.192;2023-05-29T13:51:19;3.93;;;3.63;;
12788;SDS011;6458;42.710;23.192;2023-05-29T13:53:46;4.97;;;3.40;;
12788;SDS011;6458;42.710;23.192;2023-05-29T13:56:12;3.37;;;3.17;;
12788;SDS011;6458;42.710;23.192;2023-05-29T13:58:40;1.53;;;1.37;;
12788;SDS011;6458;42.710;23.192;2023-05-29T14:01:07;1.27;;;1.17;;
12788;SDS011;6458;42.710;23.192;2023-05-29T14:03:34;1.33;;;1.33;;
12788;SDS011;6458;42.710;23.192;2023-05-29T14:06:01;1.30;;;1.30;;
12788;SDS011;6458;42.710;23.192;2023-05-29T14:08:30;1.50;;;1.40;;
12788;SDS011;6458;42.710;23.192;2023-05-29T14:10:56;2.73;;;1.50;;
12788;SDS011;6458;42.710;23.192;2023-05-29T14:13:23;1.27;;;1.27;;
12788;SDS011;6458;42.710;23.192;2023-05-29T14:15:54;1.13;;;1.13;;
12788;SDS011;6458;42.710;23.192;2023-05-29T14:18:22;2.50;;;1.33;;
12788;SDS011;6458;42.710;23.192;2023-05-29T14:20:49;3.40;;;1.20;;
12788;SDS011;6458;42.710;23.192;2023-05-29T14:23:17;1.03;;;1.03;;
12788;SDS011;6458;42.710;23.192;2023-05-29T14:25:44;1.10;;;1.10;;
12788;SDS011;6458;42.710;23.192;2023-05-29T14:28:11;0.87;;;0.87;;
12788;SDS011;6458;42.710;23.192;2023-05-29T14:30:38;1.33;;;1.20;;
12788;SDS011;6458;42.710;23.192;2023-05-29T14:33:06;1.47;;;1.37;;
12788;SDS011;6458;42.710;23.192;2023-05-29T14:35:33;1.00;;;1.00;;
12788;SDS011;6458;42.710;23.192;2023-05-29T14:37:59;0.90;;;0.90;;
12788;SDS011;6458;42.710;23.192;2023-05-29T14:40:26;1.73;;;1.20;;
12788;SDS011;6458;42.710;23.192;2023-05-29T14:42:53;4.40;;;2.57;;
12788;SDS011;6458;42.710;23.192;2023-05-29T14:45:20;4.20;;;1.50;;
12788;SDS011;6458;42.710;23.192;2023-05-29T14:47:46;1.57;;;1.53;;
12788;SDS011;6458;42.710;23.192;2023-05-29T14:50:15;2.30;;;2.10;;
12788;SDS011;6458;42.710;23.192;2023-05-29T14:52:41;1.90;;;1.80;;
12788;SDS011;6458;42.710;23.192;2023-05-29T14:55:08;1.80;;;1.80;;
12788;SDS011;6458;42.710;23.192;2023-05-29T14:57:35;1.80;;;1.80;;
12788;SDS011;6458;42.710;23.192;2023-05-29T15:00:01;1.57;;;1.53;;
12788;SDS011;6458;42.710;23.192;2023-05-29T15:02:28;1.70;;;1.60;;